sensor_id;sensor_type;location;lat;lon;timestamp;P1;durP1;ratioP1;P2;durP2;ratioP2
45011;SDS011;63444;48.148;11.542;2023-03-01T00:01:26;20.20;;;15.63;;
45011;SDS011;63444;48.148;11.542;2023-03-01T00:03:59;22.63;;;15.47;;
45011;SDS011;63444;48.148;11.542;2023-03-01T00:06:25;20.40;;;15.20;;
45011;SDS011;63444;48.148;11.542;2023-03-01T00:08:52;16.93;;;14.47;;
45011;SDS011;63444;48.148;11.542;2023-03-01T00:11:28;17.10;;;14.33;;
45011;SDS011;63444;48.148;11.542;2023-03-01T00:13:57;17.50;;;14.77;;
45011;SDS011;63444;48.148;11.542;2023-03-01T00:16:28;17.90;;;15.20;;
45011;SDS011;63444;48.148;11.542;2023-03-01T00:18:57;18.23;;;15.17;;
45011;SDS011;63444;48.148;11.542;2023-03-01T00:21:23;17.63;;;15.53;;
45011;SDS011;63444;48.148;11.542;2023-03-01T00:23:49;16.33;;;14.03;;
45011;SDS011;63444;48.148;11.542;2023-03-01T00:26:15;17.87;;;14.33;;
45011;SDS011;63444;48.148;11.542;2023-03-01T00:28:43;18.20;;;14.80;;
45011;SDS011;63444;48.148;11.542;2023-03-01T00:31:13;19.30;;;15.07;;
45011;SDS011;63444;48.148;11.542;2023-03-01T00:33:40;19.43;;;15.97;;
45011;SDS011;63444;48.148;11.542;2023-03-01T00:36:07;19.10;;;14.77;;
45011;SDS011;63444;48.148;11.542;2023-03-01T00:38:37;18.03;;;14.97;;
45011;SDS011;63444;48.148;11.542;2023-03-01T00:41:05;18.63;;;15.07;;
45011;SDS011;63444;48.148;11.542;2023-03-01T00:43:32;18.67;;;14.97;;
45011;SDS011;63444;48.148;11.542;2023-03-01T00:46:01;17.90;;;14.83;;
45011;SDS011;63444;48.148;11.542;2023-03-01T00:48:28;19.20;;;15.27;;
45011;SDS011;63444;48.148;11.542;2023-03-01T00:50:54;21.53;;;15.27;;
45011;SDS011;63444;48.148;11.542;2023-03-01T00:53:20;16.63;;;14.70;;
45011;SDS011;63444;48.148;11.542;2023-03-01T00:55:45;17.07;;;14.67;;
45011;SDS011;63444;48.148;11.542;2023-03-01T00:58:11;20.37;;;14.43;;
45011;SDS011;63444;48.148;11.542;2023-03-01T01:00:36;20.37;;;15.93;;
45011;SDS011;63444;48.148;11.542;2023-03-01T01:03:02;17.73;;;13.90;;
45011;SDS011;63444;48.148;11.542;2023-03-01T01:05:28;18.83;;;15.27;;
45011;SDS011;63444;48.148;11.542;2023-03-01T01:07:54;17.67;;;14.93;;
45011;SDS011;63444;48.148;11.542;2023-03-01T01:10:21;18.77;;;15.23;;
45011;SDS011;63444;48.148;11.542;2023-03-01T01:12:47;18.43;;;15.23;;
45011;SDS011;63444;48.148;11.542;2023-03-01T01:15:13;18.77;;;15.20;;
45011;SDS011;63444;48.148;11.542;2023-03-01T01:17:41;19.97;;;14.97;;
45011;SDS011;63444;48.148;11.542;2023-03-01T01:20:07;17.87;;;15.00;;
45011;SDS011;63444;48.148;11.542;2023-03-01T01:22:34;21.30;;;16.67;;
45011;SDS011;63444;48.148;11.542;2023-03-01T01:25:00;20.33;;;15.87;;
45011;SDS011;63444;48.148;11.542;2023-03-01T01:27:27;20.77;;;16.20;;
45011;SDS011;63444;48.148;11.542;2023-03-01T01:29:52;19.30;;;15.80;;
45011;SDS011;63444;48.148;11.542;2023-03-01T01:32:18;19.33;;;15.70;;
45011;SDS011;63444;48.148;11.542;2023-03-01T01:34:44;19.47;;;15.53;;
45011;SDS011;63444;48.148;11.542;2023-03-01T01:37:11;20.50;;;15.83;;
45011;SDS011;63444;48.148;11.542;2023-03-01T01:39:37;18.93;;;15.13;;
45011;SDS011;63444;48.148;11.542;2023-03-01T01:42:03;18.30;;;15.30;;
45011;SDS011;63444;48.148;11.542;2023-03-01T01:44:29;19.60;;;14.93;;
45011;SDS011;63444;48.148;11.542;2023-03-01T01:54:49;17.97;;;14.70;;
45011;SDS011;63444;48.148;11.542;2023-03-01T01:57:22;19.23;;;15.53;;
45011;SDS011;63444;48.148;11.542;2023-03-01T01:59:53;18.77;;;15.37;;
45011;SDS011;63444;48.148;11.542;2023-03-01T02:02:21;19.30;;;15.50;;
45011;SDS011;63444;48.148;11.542;2023-03-01T02:04:47;18.10;;;15.60;;
45011;SDS011;63444;48.148;11.542;2023-03-01T02:07:21;18.73;;;15.63;;
45011;SDS011;63444;48.148;11.542;2023-03-01T02:09:49;16.40;;;14.60;;
45011;SDS011;63444;48.148;11.542;2023-03-01T02:12:20;19.80;;;15.40;;
45011;SDS011;63444;48.148;11.542;2023-03-01T02:14:49;19.20;;;15.63;;
45011;SDS011;63444;48.148;11.542;2023-03-01T02:17:15;16.93;;;15.07;;
45011;SDS011;63444;48.148;11.542;2023-03-01T02:22:32;18.33;;;14.50;;
45011;SDS011;63444;48.148;11.542;2023-03-01T02:30:44;18.53;;;14.80;;
45011;SDS011;63444;48.148;11.542;2023-03-01T02:33:31;20.07;;;15.67;;
45011;SDS011;63444;48.148;11.542;2023-03-01T02:36:01;19.70;;;15.60;;
45011;SDS011;63444;48.148;11.542;2023-03-01T02:38:29;18.77;;;14.33;;
45011;SDS011;63444;48.148;11.542;2023-03-01T02:40:56;16.70;;;13.97;;
45011;SDS011;63444;48.148;11.542;2023-03-01T02:43:22;19.23;;;15.03;;
45011;SDS011;63444;48.148;11.542;2023-03-01T02:45:56;16.70;;;14.57;;
45011;SDS011;63444;48.148;11.542;2023-03-01T02:48:23;17.77;;;13.93;;
45011;SDS011;63444;48.148;11.542;2023-03-01T02:50:55;18.10;;;14.33;;
45011;SDS011;63444;48.148;11.542;2023-03-01T02:56:35;18.67;;;14.83;;
45011;SDS011;63444;48.148;11.542;2023-03-01T02:59:00;17.90;;;15.13;;
45011;SDS011;63444;48.148;11.542;2023-03-01T03:01:27;15.97;;;13.90;;
45011;SDS011;63444;48.148;11.542;2023-03-01T03:04:05;18.93;;;14.63;;
45011;SDS011;63444;48.148;11.542;2023-03-01T03:06:33;18.70;;;14.83;;
45011;SDS011;63444;48.148;11.542;2023-03-01T03:08:59;19.57;;;15.53;;
45011;SDS011;63444;48.148;11.542;2023-03-01T03:11:24;18.20;;;14.40;;
45011;SDS011;63444;48.148;11.542;2023-03-01T03:13:51;17.53;;;14.83;;
45011;SDS011;63444;48.148;11.542;2023-03-01T03:16:17;16.90;;;14.20;;
45011;SDS011;63444;48.148;11.542;2023-03-01T03:18:43;19.27;;;15.53;;
45011;SDS011;63444;48.148;11.542;2023-03-01T03:21:11;18.03;;;14.87;;
45011;SDS011;63444;48.148;11.542;2023-03-01T03:23:38;19.53;;;15.40;;
45011;SDS011;63444;48.148;11.542;2023-03-01T03:26:04;16.93;;;14.77;;
45011;SDS011;63444;48.148;11.542;2023-03-01T03:28:31;17.23;;;14.70;;
45011;SDS011;63444;48.148;11.542;2023-03-01T03:31:00;18.87;;;15.43;;
45011;SDS011;63444;48.148;11.542;2023-03-01T03:33:29;18.57;;;15.33;;
45011;SDS011;63444;48.148;11.542;2023-03-01T03:35:57;18.27;;;15.07;;
45011;SDS011;63444;48.148;11.542;2023-03-01T03:38:23;17.20;;;14.57;;
45011;SDS011;63444;48.148;11.542;2023-03-01T03:40:50;20.43;;;15.23;;
45011;SDS011;63444;48.148;11.542;2023-03-01T03:43:27;18.63;;;14.57;;
45011;SDS011;63444;48.148;11.542;2023-03-01T03:45:54;19.57;;;15.70;;
45011;SDS011;63444;48.148;11.542;2023-03-01T03:48:22;20.03;;;16.67;;
45011;SDS011;63444;48.148;11.542;2023-03-01T03:50:52;19.83;;;15.17;;
45011;SDS011;63444;48.148;11.542;2023-03-01T03:53:21;19.43;;;16.33;;
45011;SDS011;63444;48.148;11.542;2023-03-01T03:55:47;20.23;;;15.83;;
45011;SDS011;63444;48.148;11.542;2023-03-01T03:58:17;20.60;;;16.17;;
45011;SDS011;63444;48.148;11.542;2023-03-01T04:00:45;20.90;;;16.03;;
45011;SDS011;63444;48.148;11.542;2023-03-01T04:03:12;17.80;;;15.10;;
45011;SDS011;63444;48.148;11.542;2023-03-01T04:05:40;19.13;;;16.00;;
45011;SDS011;63444;48.148;11.542;2023-03-01T04:08:06;19.47;;;15.57;;
45011;SDS011;63444;48.148;11.542;2023-03-01T04:10:34;18.40;;;15.67;;
45011;SDS011;63444;48.148;11.542;2023-03-01T04:13:00;18.87;;;16.50;;
45011;SDS011;63444;48.148;11.542;2023-03-01T04:15:26;20.50;;;15.40;;
45011;SDS011;63444;48.148;11.542;2023-03-01T04:17:53;19.47;;;15.47;;
45011;SDS011;63444;48.148;11.542;2023-03-01T04:20:21;17.93;;;15.13;;
45011;SDS011;63444;48.148;11.542;2023-03-01T04:22:51;17.90;;;15.87;;
45011;SDS011;63444;48.148;11.542;2023-03-01T04:25:23;18.93;;;15.80;;
45011;SDS011;63444;48.148;11.542;2023-03-01T04:27:49;18.53;;;15.73;;
45011;SDS011;63444;48.148;11.542;2023-03-01T04:30:14;18.57;;;15.93;;
45011;SDS011;63444;48.148;11.542;2023-03-01T04:32:40;18.50;;;15.27;;
45011;SDS011;63444;48.148;11.542;2023-03-01T04:35:07;20.37;;;16.07;;
45011;SDS011;63444;48.148;11.542;2023-03-01T04:37:33;20.53;;;16.30;;
45011;SDS011;63444;48.148;11.542;2023-03-01T04:39:59;19.03;;;15.90;;
45011;SDS011;63444;48.148;11.542;2023-03-01T04:42:26;18.33;;;15.03;;
45011;SDS011;63444;48.148;11.542;2023-03-01T04:44:51;18.70;;;15.10;;
45011;SDS011;63444;48.148;11.542;2023-03-01T04:47:18;18.70;;;15.73;;
45011;SDS011;63444;48.148;11.542;2023-03-01T04:49:43;20.40;;;15.90;;
45011;SDS011;63444;48.148;11.542;2023-03-01T04:52:09;19.90;;;15.93;;
45011;SDS011;63444;48.148;11.542;2023-03-01T04:54:35;19.90;;;16.70;;
45011;SDS011;63444;48.148;11.542;2023-03-01T04:57:01;19.17;;;15.57;;
45011;SDS011;63444;48.148;11.542;2023-03-01T04:59:27;18.07;;;14.90;;
45011;SDS011;63444;48.148;11.542;2023-03-01T05:01:54;17.37;;;14.27;;
45011;SDS011;63444;48.148;11.542;2023-03-01T05:04:21;17.53;;;14.83;;
45011;SDS011;63444;48.148;11.542;2023-03-01T05:06:48;18.60;;;15.57;;
45011;SDS011;63444;48.148;11.542;2023-03-01T05:09:14;19.87;;;14.53;;
45011;SDS011;63444;48.148;11.542;2023-03-01T05:11:40;19.37;;;15.33;;
45011;SDS011;63444;48.148;11.542;2023-03-01T05:14:07;20.30;;;15.23;;
45011;SDS011;63444;48.148;11.542;2023-03-01T05:16:34;19.37;;;15.43;;
45011;SDS011;63444;48.148;11.542;2023-03-01T05:19:01;21.33;;;16.40;;
45011;SDS011;63444;48.148;11.542;2023-03-01T05:21:36;18.60;;;14.53;;
45011;SDS011;63444;48.148;11.542;2023-03-01T05:24:22;18.30;;;15.23;;
45011;SDS011;63444;48.148;11.542;2023-03-01T05:26:48;21.67;;;17.10;;
45011;SDS011;63444;48.148;11.542;2023-03-01T05:29:13;18.37;;;16.23;;
45011;SDS011;63444;48.148;11.542;2023-03-01T05:31:39;20.13;;;15.57;;
45011;SDS011;63444;48.148;11.542;2023-03-01T05:34:05;20.43;;;16.03;;
45011;SDS011;63444;48.148;11.542;2023-03-01T05:36:31;19.07;;;16.43;;
45011;SDS011;63444;48.148;11.542;2023-03-01T05:38:58;19.97;;;16.07;;
45011;SDS011;63444;48.148;11.542;2023-03-01T05:41:24;21.87;;;17.37;;
45011;SDS011;63444;48.148;11.542;2023-03-01T05:43:50;19.03;;;16.13;;
45011;SDS011;63444;48.148;11.542;2023-03-01T05:46:15;19.37;;;15.10;;
45011;SDS011;63444;48.148;11.542;2023-03-01T05:48:44;19.00;;;15.70;;
45011;SDS011;63444;48.148;11.542;2023-03-01T05:51:09;21.30;;;16.43;;
45011;SDS011;63444;48.148;11.542;2023-03-01T05:53:35;19.90;;;15.87;;
45011;SDS011;63444;48.148;11.542;2023-03-01T05:56:02;20.83;;;16.43;;
45011;SDS011;63444;48.148;11.542;2023-03-01T05:58:29;21.33;;;17.10;;
45011;SDS011;63444;48.148;11.542;2023-03-01T06:00:54;19.27;;;16.37;;
45011;SDS011;63444;48.148;11.542;2023-03-01T06:03:20;18.77;;;15.63;;
45011;SDS011;63444;48.148;11.542;2023-03-01T06:05:46;22.23;;;16.70;;
45011;SDS011;63444;48.148;11.542;2023-03-01T06:08:12;19.70;;;16.03;;
45011;SDS011;63444;48.148;11.542;2023-03-01T06:10:38;22.63;;;17.17;;
45011;SDS011;63444;48.148;11.542;2023-03-01T06:13:04;21.27;;;16.63;;
45011;SDS011;63444;48.148;11.542;2023-03-01T06:15:29;21.87;;;16.23;;
45011;SDS011;63444;48.148;11.542;2023-03-01T06:17:55;20.53;;;16.83;;
45011;SDS011;63444;48.148;11.542;2023-03-01T06:20:22;21.23;;;16.90;;
45011;SDS011;63444;48.148;11.542;2023-03-01T06:22:50;21.53;;;16.57;;
45011;SDS011;63444;48.148;11.542;2023-03-01T06:25:18;18.90;;;16.57;;
45011;SDS011;63444;48.148;11.542;2023-03-01T06:27:45;21.90;;;15.70;;
45011;SDS011;63444;48.148;11.542;2023-03-01T06:30:12;21.53;;;16.43;;
45011;SDS011;63444;48.148;11.542;2023-03-01T06:32:40;22.93;;;17.23;;
45011;SDS011;63444;48.148;11.542;2023-03-01T06:35:13;21.37;;;17.77;;
45011;SDS011;63444;48.148;11.542;2023-03-01T06:37:42;22.40;;;17.10;;
45011;SDS011;63444;48.148;11.542;2023-03-01T06:40:09;25.83;;;17.10;;
45011;SDS011;63444;48.148;11.542;2023-03-01T06:42:39;20.70;;;16.30;;
45011;SDS011;63444;48.148;11.542;2023-03-01T06:45:06;21.60;;;17.07;;
45011;SDS011;63444;48.148;11.542;2023-03-01T06:47:33;24.70;;;16.93;;
45011;SDS011;63444;48.148;11.542;2023-03-01T06:49:59;22.80;;;17.30;;
45011;SDS011;63444;48.148;11.542;2023-03-01T06:52:26;20.10;;;16.73;;
45011;SDS011;63444;48.148;11.542;2023-03-01T06:54:51;22.60;;;16.93;;
45011;SDS011;63444;48.148;11.542;2023-03-01T06:57:17;22.57;;;17.10;;
45011;SDS011;63444;48.148;11.542;2023-03-01T06:59:44;23.53;;;16.93;;
45011;SDS011;63444;48.148;11.542;2023-03-01T07:02:11;22.47;;;16.93;;
45011;SDS011;63444;48.148;11.542;2023-03-01T07:04:38;21.60;;;17.60;;
45011;SDS011;63444;48.148;11.542;2023-03-01T07:07:05;34.23;;;18.47;;
45011;SDS011;63444;48.148;11.542;2023-03-01T07:09:31;26.67;;;18.33;;
45011;SDS011;63444;48.148;11.542;2023-03-01T07:12:06;21.60;;;17.67;;
45011;SDS011;63444;48.148;11.542;2023-03-01T07:14:32;25.47;;;17.27;;
45011;SDS011;63444;48.148;11.542;2023-03-01T07:16:58;23.73;;;16.93;;
45011;SDS011;63444;48.148;11.542;2023-03-01T07:19:23;22.60;;;17.17;;
45011;SDS011;63444;48.148;11.542;2023-03-01T07:21:49;22.97;;;17.00;;
45011;SDS011;63444;48.148;11.542;2023-03-01T07:24:15;20.47;;;17.03;;
45011;SDS011;63444;48.148;11.542;2023-03-01T07:26:40;25.90;;;17.87;;
45011;SDS011;63444;48.148;11.542;2023-03-01T07:29:07;21.27;;;17.70;;
45011;SDS011;63444;48.148;11.542;2023-03-01T07:31:34;22.93;;;17.37;;
45011;SDS011;63444;48.148;11.542;2023-03-01T07:34:00;23.07;;;16.87;;
45011;SDS011;63444;48.148;11.542;2023-03-01T07:36:27;21.83;;;17.57;;
45011;SDS011;63444;48.148;11.542;2023-03-01T07:38:52;25.57;;;19.33;;
45011;SDS011;63444;48.148;11.542;2023-03-01T07:41:20;20.93;;;17.47;;
45011;SDS011;63444;48.148;11.542;2023-03-01T07:43:46;25.00;;;17.47;;
45011;SDS011;63444;48.148;11.542;2023-03-01T07:46:11;24.23;;;18.00;;
45011;SDS011;63444;48.148;11.542;2023-03-01T07:48:38;19.73;;;17.00;;
45011;SDS011;63444;48.148;11.542;2023-03-01T07:51:04;22.83;;;17.57;;
45011;SDS011;63444;48.148;11.542;2023-03-01T07:53:32;22.97;;;17.47;;
45011;SDS011;63444;48.148;11.542;2023-03-01T07:56:03;21.40;;;17.57;;
45011;SDS011;63444;48.148;11.542;2023-03-01T07:58:33;20.40;;;16.37;;
45011;SDS011;63444;48.148;11.542;2023-03-01T08:01:04;22.70;;;16.83;;
45011;SDS011;63444;48.148;11.542;2023-03-01T08:03:35;23.50;;;16.90;;
45011;SDS011;63444;48.148;11.542;2023-03-01T08:06:02;48.67;;;19.77;;
45011;SDS011;63444;48.148;11.542;2023-03-01T08:08:29;25.07;;;17.73;;
45011;SDS011;63444;48.148;11.542;2023-03-01T08:10:56;22.10;;;16.57;;
45011;SDS011;63444;48.148;11.542;2023-03-01T08:13:22;22.10;;;17.30;;
45011;SDS011;63444;48.148;11.542;2023-03-01T08:15:48;24.80;;;16.97;;
45011;SDS011;63444;48.148;11.542;2023-03-01T08:18:15;22.57;;;17.73;;
45011;SDS011;63444;48.148;11.542;2023-03-01T08:20:42;24.33;;;18.70;;
45011;SDS011;63444;48.148;11.542;2023-03-01T08:23:08;21.97;;;16.90;;
45011;SDS011;63444;48.148;11.542;2023-03-01T08:25:35;23.77;;;18.87;;
45011;SDS011;63444;48.148;11.542;2023-03-01T08:28:01;24.93;;;17.93;;
45011;SDS011;63444;48.148;11.542;2023-03-01T08:30:26;24.53;;;17.77;;
45011;SDS011;63444;48.148;11.542;2023-03-01T08:32:52;30.13;;;18.17;;
45011;SDS011;63444;48.148;11.542;2023-03-01T08:35:18;24.73;;;18.00;;
45011;SDS011;63444;48.148;11.542;2023-03-01T08:37:45;23.43;;;18.00;;
45011;SDS011;63444;48.148;11.542;2023-03-01T08:40:12;23.53;;;17.77;;
45011;SDS011;63444;48.148;11.542;2023-03-01T08:42:39;22.17;;;17.53;;
45011;SDS011;63444;48.148;11.542;2023-03-01T08:45:06;25.27;;;18.57;;
45011;SDS011;63444;48.148;11.542;2023-03-01T08:47:32;22.53;;;17.60;;
45011;SDS011;63444;48.148;11.542;2023-03-01T08:49:58;23.67;;;17.37;;
45011;SDS011;63444;48.148;11.542;2023-03-01T08:52:24;22.43;;;17.73;;
45011;SDS011;63444;48.148;11.542;2023-03-01T08:54:50;27.77;;;18.80;;
45011;SDS011;63444;48.148;11.542;2023-03-01T08:57:16;24.07;;;17.87;;
45011;SDS011;63444;48.148;11.542;2023-03-01T08:59:43;24.53;;;17.87;;
45011;SDS011;63444;48.148;11.542;2023-03-01T09:02:12;22.03;;;17.17;;
45011;SDS011;63444;48.148;11.542;2023-03-01T09:04:42;22.63;;;17.60;;
45011;SDS011;63444;48.148;11.542;2023-03-01T09:07:10;23.07;;;17.73;;
45011;SDS011;63444;48.148;11.542;2023-03-01T09:09:36;21.13;;;16.70;;
45011;SDS011;63444;48.148;11.542;2023-03-01T09:12:03;22.97;;;18.47;;
45011;SDS011;63444;48.148;11.542;2023-03-01T09:14:29;25.60;;;19.33;;
45011;SDS011;63444;48.148;11.542;2023-03-01T09:16:55;27.53;;;18.83;;
45011;SDS011;63444;48.148;11.542;2023-03-01T09:19:20;22.67;;;17.73;;
45011;SDS011;63444;48.148;11.542;2023-03-01T09:21:46;26.83;;;19.27;;
45011;SDS011;63444;48.148;11.542;2023-03-01T09:24:20;24.17;;;18.17;;
45011;SDS011;63444;48.148;11.542;2023-03-01T09:26:47;20.70;;;17.37;;
45011;SDS011;63444;48.148;11.542;2023-03-01T09:29:22;22.33;;;18.17;;
45011;SDS011;63444;48.148;11.542;2023-03-01T09:31:48;24.37;;;18.93;;
45011;SDS011;63444;48.148;11.542;2023-03-01T09:34:14;22.30;;;17.87;;
45011;SDS011;63444;48.148;11.542;2023-03-01T09:36:47;24.30;;;17.63;;
45011;SDS011;63444;48.148;11.542;2023-03-01T09:39:17;23.20;;;17.63;;
45011;SDS011;63444;48.148;11.542;2023-03-01T09:44:22;31.27;;;18.70;;
45011;SDS011;63444;48.148;11.542;2023-03-01T09:46:56;23.30;;;18.67;;
45011;SDS011;63444;48.148;11.542;2023-03-01T09:49:24;25.30;;;17.93;;
45011;SDS011;63444;48.148;11.542;2023-03-01T09:54:58;23.10;;;18.10;;
45011;SDS011;63444;48.148;11.542;2023-03-01T09:57:26;22.70;;;18.10;;
45011;SDS011;63444;48.148;11.542;2023-03-01T10:00:12;25.13;;;18.30;;
45011;SDS011;63444;48.148;11.542;2023-03-01T10:03:03;23.00;;;17.97;;
45011;SDS011;63444;48.148;11.542;2023-03-01T10:05:55;23.57;;;17.80;;
45011;SDS011;63444;48.148;11.542;2023-03-01T10:08:55;21.13;;;16.50;;
45011;SDS011;63444;48.148;11.542;2023-03-01T10:11:37;20.83;;;16.67;;
45011;SDS011;63444;48.148;11.542;2023-03-01T10:14:09;22.37;;;17.57;;
45011;SDS011;63444;48.148;11.542;2023-03-01T10:19:20;22.97;;;17.03;;
45011;SDS011;63444;48.148;11.542;2023-03-01T10:21:52;20.80;;;16.90;;
45011;SDS011;63444;48.148;11.542;2023-03-01T10:24:18;20.60;;;16.87;;
45011;SDS011;63444;48.148;11.542;2023-03-01T10:26:56;22.23;;;16.53;;
45011;SDS011;63444;48.148;11.542;2023-03-01T10:29:46;21.63;;;16.97;;
45011;SDS011;63444;48.148;11.542;2023-03-01T10:32:24;22.17;;;16.73;;
45011;SDS011;63444;48.148;11.542;2023-03-01T10:34:50;19.90;;;16.67;;
45011;SDS011;63444;48.148;11.542;2023-03-01T10:40:03;20.27;;;16.83;;
45011;SDS011;63444;48.148;11.542;2023-03-01T10:42:35;19.77;;;15.90;;
45011;SDS011;63444;48.148;11.542;2023-03-01T10:48:11;17.27;;;15.30;;
45011;SDS011;63444;48.148;11.542;2023-03-01T10:58:59;19.43;;;16.07;;
45011;SDS011;63444;48.148;11.542;2023-03-01T11:01:28;17.67;;;15.43;;
45011;SDS011;63444;48.148;11.542;2023-03-01T11:06:36;15.50;;;13.90;;
45011;SDS011;63444;48.148;11.542;2023-03-01T11:09:17;18.33;;;15.33;;
45011;SDS011;63444;48.148;11.542;2023-03-01T11:11:57;15.27;;;13.60;;
45011;SDS011;63444;48.148;11.542;2023-03-01T11:14:35;14.57;;;13.17;;
45011;SDS011;63444;48.148;11.542;2023-03-01T11:17:12;18.10;;;14.57;;
45011;SDS011;63444;48.148;11.542;2023-03-01T11:19:59;15.00;;;13.50;;
45011;SDS011;63444;48.148;11.542;2023-03-01T11:22:26;14.98;;;13.48;;
45011;SDS011;63444;48.148;11.542;2023-03-01T11:24:53;14.88;;;13.25;;
45011;SDS011;63444;48.148;11.542;2023-03-01T11:27:21;12.85;;;11.60;;
45011;SDS011;63444;48.148;11.542;2023-03-01T11:30:01;14.48;;;13.00;;
45011;SDS011;63444;48.148;11.542;2023-03-01T11:32:33;13.60;;;12.30;;
45011;SDS011;63444;48.148;11.542;2023-03-01T11:35:21;13.45;;;12.20;;
45011;SDS011;63444;48.148;11.542;2023-03-01T11:46:48;12.85;;;11.45;;
45011;SDS011;63444;48.148;11.542;2023-03-01T11:52:20;13.32;;;11.43;;
45011;SDS011;63444;48.148;11.542;2023-03-01T12:08:42;13.43;;;12.13;;
45011;SDS011;63444;48.148;11.542;2023-03-01T12:14:30;15.38;;;13.88;;
45011;SDS011;63444;48.148;11.542;2023-03-01T12:22:17;16.17;;;14.10;;
45011;SDS011;63444;48.148;11.542;2023-03-01T12:49:33;18.43;;;16.50;;
45011;SDS011;63444;48.148;11.542;2023-03-01T12:55:02;18.77;;;16.77;;
45011;SDS011;63444;48.148;11.542;2023-03-01T12:57:42;19.63;;;16.23;;
45011;SDS011;63444;48.148;11.542;2023-03-01T13:08:11;20.73;;;17.23;;
45011;SDS011;63444;48.148;11.542;2023-03-01T13:10:43;24.30;;;18.43;;
45011;SDS011;63444;48.148;11.542;2023-03-01T13:15:47;21.53;;;17.43;;
45011;SDS011;63444;48.148;11.542;2023-03-01T13:20:47;19.17;;;16.60;;
45011;SDS011;63444;48.148;11.542;2023-03-01T13:33:52;20.73;;;17.83;;
45011;SDS011;63444;48.148;11.542;2023-03-01T13:39:03;20.53;;;17.10;;
45011;SDS011;63444;48.148;11.542;2023-03-01T13:46:58;22.27;;;17.47;;
45011;SDS011;63444;48.148;11.542;2023-03-01T13:49:50;19.97;;;17.63;;
45011;SDS011;63444;48.148;11.542;2023-03-01T13:57:50;20.13;;;16.73;;
45011;SDS011;63444;48.148;11.542;2023-03-01T14:00:39;26.10;;;18.30;;
45011;SDS011;63444;48.148;11.542;2023-03-01T14:03:10;23.80;;;17.77;;
45011;SDS011;63444;48.148;11.542;2023-03-01T14:05:39;20.37;;;17.40;;
45011;SDS011;63444;48.148;11.542;2023-03-01T14:08:21;22.37;;;17.47;;
45011;SDS011;63444;48.148;11.542;2023-03-01T14:11:35;22.40;;;17.93;;
45011;SDS011;63444;48.148;11.542;2023-03-01T14:19:26;19.40;;;17.30;;
45011;SDS011;63444;48.148;11.542;2023-03-01T14:21:58;22.23;;;18.27;;
45011;SDS011;63444;48.148;11.542;2023-03-01T14:24:29;20.87;;;17.87;;
45011;SDS011;63444;48.148;11.542;2023-03-01T14:26:57;23.73;;;20.07;;
45011;SDS011;63444;48.148;11.542;2023-03-01T14:29:26;20.03;;;17.83;;
45011;SDS011;63444;48.148;11.542;2023-03-01T14:32:08;22.17;;;18.10;;
45011;SDS011;63444;48.148;11.542;2023-03-01T14:34:35;20.10;;;17.37;;
45011;SDS011;63444;48.148;11.542;2023-03-01T14:37:18;21.97;;;18.07;;
45011;SDS011;63444;48.148;11.542;2023-03-01T14:39:55;25.50;;;19.43;;
45011;SDS011;63444;48.148;11.542;2023-03-01T14:42:25;19.37;;;16.93;;
45011;SDS011;63444;48.148;11.542;2023-03-01T14:44:53;19.67;;;17.17;;
45011;SDS011;63444;48.148;11.542;2023-03-01T14:47:26;20.57;;;17.23;;
45011;SDS011;63444;48.148;11.542;2023-03-01T14:49:59;20.87;;;17.00;;
45011;SDS011;63444;48.148;11.542;2023-03-01T14:52:45;20.13;;;16.90;;
45011;SDS011;63444;48.148;11.542;2023-03-01T14:55:15;19.70;;;16.90;;
45011;SDS011;63444;48.148;11.542;2023-03-01T14:57:44;23.80;;;17.03;;
45011;SDS011;63444;48.148;11.542;2023-03-01T15:00:33;20.10;;;16.10;;
45011;SDS011;63444;48.148;11.542;2023-03-01T15:03:42;20.53;;;16.73;;
45011;SDS011;63444;48.148;11.542;2023-03-01T15:05:50;20.00;;;15.77;;
45011;SDS011;63444;48.148;11.542;2023-03-01T15:08:18;21.83;;;17.30;;
45011;SDS011;63444;48.148;11.542;2023-03-01T15:13:42;17.20;;;15.17;;
45011;SDS011;63444;48.148;11.542;2023-03-01T15:16:13;20.63;;;16.83;;
45011;SDS011;63444;48.148;11.542;2023-03-01T15:18:54;19.20;;;15.20;;
45011;SDS011;63444;48.148;11.542;2023-03-01T15:21:26;18.07;;;15.53;;
45011;SDS011;63444;48.148;11.542;2023-03-01T15:24:05;17.90;;;15.20;;
45011;SDS011;63444;48.148;11.542;2023-03-01T15:26:49;21.20;;;16.73;;
45011;SDS011;63444;48.148;11.542;2023-03-01T15:29:21;17.37;;;14.80;;
45011;SDS011;63444;48.148;11.542;2023-03-01T15:32:04;19.43;;;16.07;;
45011;SDS011;63444;48.148;11.542;2023-03-01T15:34:38;18.40;;;16.03;;
45011;SDS011;63444;48.148;11.542;2023-03-01T15:37:05;18.33;;;15.10;;
45011;SDS011;63444;48.148;11.542;2023-03-01T15:39:53;18.70;;;15.27;;
45011;SDS011;63444;48.148;11.542;2023-03-01T15:48:00;16.97;;;14.70;;
45011;SDS011;63444;48.148;11.542;2023-03-01T15:50:32;18.70;;;15.53;;
45011;SDS011;63444;48.148;11.542;2023-03-01T15:53:00;17.47;;;14.83;;
45011;SDS011;63444;48.148;11.542;2023-03-01T15:55:32;19.27;;;15.70;;
45011;SDS011;63444;48.148;11.542;2023-03-01T16:00:27;17.03;;;14.93;;
45011;SDS011;63444;48.148;11.542;2023-03-01T16:02:53;18.53;;;14.63;;
45011;SDS011;63444;48.148;11.542;2023-03-01T16:05:29;18.27;;;14.57;;
45011;SDS011;63444;48.148;11.542;2023-03-01T16:07:56;16.37;;;13.93;;
45011;SDS011;63444;48.148;11.542;2023-03-01T16:10:22;19.07;;;14.97;;
45011;SDS011;63444;48.148;11.542;2023-03-01T16:12:48;17.37;;;13.77;;
45011;SDS011;63444;48.148;11.542;2023-03-01T16:15:18;21.17;;;16.10;;
45011;SDS011;63444;48.148;11.542;2023-03-01T16:17:58;19.33;;;14.53;;
45011;SDS011;63444;48.148;11.542;2023-03-01T16:20:25;18.80;;;15.27;;
45011;SDS011;63444;48.148;11.542;2023-03-01T16:22:52;17.47;;;14.77;;
45011;SDS011;63444;48.148;11.542;2023-03-01T16:25:19;16.57;;;13.93;;
45011;SDS011;63444;48.148;11.542;2023-03-01T16:27:46;18.90;;;13.70;;
45011;SDS011;63444;48.148;11.542;2023-03-01T16:30:14;17.47;;;13.80;;
45011;SDS011;63444;48.148;11.542;2023-03-01T16:32:43;21.33;;;15.57;;
45011;SDS011;63444;48.148;11.542;2023-03-01T16:35:10;16.53;;;14.50;;
45011;SDS011;63444;48.148;11.542;2023-03-01T16:37:36;17.90;;;14.33;;
45011;SDS011;63444;48.148;11.542;2023-03-01T16:40:03;17.40;;;13.37;;
45011;SDS011;63444;48.148;11.542;2023-03-01T16:42:34;21.33;;;15.53;;
45011;SDS011;63444;48.148;11.542;2023-03-01T16:44:59;18.67;;;14.40;;
45011;SDS011;63444;48.148;11.542;2023-03-01T16:47:26;18.20;;;13.87;;
45011;SDS011;63444;48.148;11.542;2023-03-01T16:49:52;17.33;;;13.97;;
45011;SDS011;63444;48.148;11.542;2023-03-01T16:52:18;18.73;;;13.63;;
45011;SDS011;63444;48.148;11.542;2023-03-01T16:54:44;17.70;;;13.40;;
45011;SDS011;63444;48.148;11.542;2023-03-01T16:57:10;18.03;;;13.50;;
45011;SDS011;63444;48.148;11.542;2023-03-01T16:59:36;19.77;;;14.03;;
45011;SDS011;63444;48.148;11.542;2023-03-01T17:02:03;17.53;;;13.00;;